Greenville Farm
1800 N 800 E, North Logan
Last Weather Update:03/30/2012 11:00:00 PM
Date
ETo
ETc
Rain
Irrigation
Req
Temp
Max
Temp
Min
Temp
Avg
Avg RH
Avg Wind
Avg Solar
inches
inches
incehs
inches
F
F
F
%
%
watts/m2
02/01/2012 0.03" 0.00" 0.00" 0.00" 42.2° 24.5° 31.5° 74.3% 2.7 MPH 7.1w/m2
02/02/2012 0.02" 0.00" 0.00" 0.00" 36.4° 29.5° 32.5° 82.9% 4.3 MPH 6.0w/m2
02/03/2012 0.06" 0.00" 0.01" -0.01" 38.7° 23.1° 32.2° 65.4% 5.7 MPH 12.7w/m2
02/04/2012 0.06" 0.00" 0.00" 0.00" 38.7° 24.2° 33.2° 48.9% 6.7 MPH 11.3w/m2
02/05/2012 0.03" 0.00" 0.00" 0.00" 34.0° 19.6° 27.5° 68.7% 2.7 MPH 8.9w/m2
02/06/2012 0.04" 0.00" 0.00" 0.00" 37.8° 16.3° 25.9° 71.0% 2.6 MPH 12.6w/m2
02/07/2012 0.05" 0.00" 0.00" 0.00" 42.8° 20.9° 30.1° 58.3% 3.8 MPH 12.5w/m2
02/08/2012 0.02" 0.00" 0.04" -0.03" 37.0° 26.0° 30.9° 72.7% 1.7 MPH 4.5w/m2
02/09/2012 0.01" 0.00" 0.01" -0.01" 37.4° 30.7° 33.7° 91.8% 1.7 MPH 2.1w/m2
02/10/2012 0.02" 0.00" 0.04" -0.03" 46.4° 32.0° 36.6° 84.6% 1.8 MPH 4.5w/m2
02/11/2012 0.03" 0.00" 0.00" 0.00" 42.9° 28.3° 35.7° 82.4% 1.4 MPH 6.8w/m2
02/12/2012 0.01" 0.00" 0.01" -0.01" 37.9° 31.5° 34.4° 89.3% 0.6 MPH 2.2w/m2
02/13/2012 0.04" 0.00" 0.05" -0.04" 42.7° 29.3° 34.0° 84.8% 1.6 MPH 10.2w/m2
02/14/2012 0.03" 0.00" 0.00" 0.00" 39.2° 24.0° 31.0° 76.9% 2.4 MPH 9.2w/m2
02/15/2012 0.03" 0.00" 0.23" -0.18" 39.3° 27.7° 31.7° 86.4% 2.3 MPH 8.5w/m2
02/16/2012 0.05" 0.00" 0.00" 0.00" 39.1° 20.7° 28.6° 66.3% 3.0 MPH 14.4w/m2
02/17/2012 0.03" 0.00" 0.00" 0.00" 40.2° 24.7° 30.0° 65.9% 2.3 MPH 7.3w/m2
02/18/2012 0.05" 0.00" 0.01" -0.01" 43.7° 25.2° 32.5° 69.1% 3.8 MPH 9.7w/m2
02/19/2012 0.03" 0.00" 0.21" -0.17" 35.3° 21.2° 26.9° 84.7% 1.3 MPH 9.0w/m2
02/20/2012 0.04" 0.00" 0.01" -0.01" 35.4° 13.5° 24.2° 71.1% 2.9 MPH 11.3w/m2
02/21/2012 0.03" 0.00" 0.05" -0.04" 41.3° 30.2° 35.4° 76.2% 4.6 MPH 5.4w/m2
02/22/2012 0.05" 0.00" 0.00" 0.00" 50.4° 39.1° 44.2° 64.9% 5.6 MPH 1.9w/m2
02/23/2012 0.07" 0.00" 0.00" 0.00" 41.2° 27.0° 32.1° 54.4% 5.4 MPH 11.9w/m2
02/24/2012 0.07" 0.00" 0.00" 0.00" 42.0° 21.7° 31.1° 53.7% 3.4 MPH 16.0w/m2
02/25/2012 0.05" 0.00" 0.00" 0.00" 37.8° 21.5° 29.3° 56.8% 7.5 MPH 6.0w/m2
02/26/2012 0.06" 0.00" 0.00" 0.00" 34.1° 20.6° 26.6° 52.4% 3.1 MPH 13.3w/m2
02/27/2012 0.04" 0.00" 0.00" 0.00" 43.8° 20.3° 29.2° 64.5% 3.2 MPH 7.2w/m2
02/28/2012 0.03" 0.00" 0.07" -0.06" 33.9° 25.0° 29.6° 80.7% 3.5 MPH 7.7w/m2
02/29/2012 0.04" 0.00" 0.01" -0.01" 43.3° 19.2° 30.7° 75.9% 4.1 MPH 5.7w/m2
Totals: 1.14" 0.00" 0.75" -0.60" 50.4° 13.5° 31.4° 71.6% 3.3 MPH 8.5w/m2